Accueil
METAR-TAF:

METAR-TAF

Aéroports :

Bückeburg, Allemagne

latitude: 52-17N, longitude: 009-05E, altitude: 70 m

Observation

Le bulletin a été fait il y a 24 minutes, à 16:20 UTC
Vent 6 kt de est
Température 2°C
Humidité 60%
Pression 1024 hPa
Visibilité 10 km ou plus
Quelques nuages à une hauteur de 3000 ft
Nuages fragmentés à une hauteur de 5000 ft

METAR: ETHB 221620Z 09006KT 9999 FEW030 BKN050 02/M05 Q1024 BLU BLU

Heure: 17:44 (16:44 UTC)

Prévision

Le bulletin a été fait il y a 2 heures et 23 minutes, à 14:21 UTC
Prévision valable du 22 à 15 UTC au 22 à 24 UTC
Vent 8 kt de est/nord-est
Visibilité 10 km ou plus
Nuages épars à une hauteur de 2000 ft

TAF: ETHB 221421Z 2215/2224 06008KT 9999 NSW SCT020

Observations et prévisions météorologiques de plus de 4000 aéroports (messages METAR et TAF).

Les stations disponibles sont représentées par des disques jaunes et rouges sur la carte.

Passer la souris dessus pour voir le nom de la station.

Cliquer dessus pour voir les observations et prévisions météorologiques.

Pour changer de carte: cliquez sur les boutons verts avec une croix noire pour zoomer, sur le bouton vert avec un tiret pour effectuer un zoom arrière, ou sur les flèches vertes pour les cartes adjacentes.


METAR-TAF: